createdAt,value
2019-04-05T00:03:01.666Z,15.48
2019-04-05T00:06:07.454Z,10.25
2019-04-05T00:09:13.346Z,8.43
2019-04-05T00:12:18.977Z,11.53
2019-04-05T00:15:24.773Z,13.43
2019-04-05T00:18:30.373Z,11.33
2019-04-05T00:21:36.029Z,13.05
2019-04-05T00:24:42.970Z,10.13
2019-04-05T00:27:48.680Z,9.48
2019-04-05T00:30:54.474Z,12.50
2019-04-05T00:34:00.196Z,13.48
2019-04-05T00:37:06.063Z,10.60
2019-04-05T00:40:12.145Z,11.40
2019-04-05T00:43:17.770Z,11.78
2019-04-05T00:46:23.459Z,9.80
2019-04-05T00:49:29.054Z,14.25
2019-04-05T00:52:34.723Z,11.15
2019-04-05T00:55:40.473Z,10.85
2019-04-05T00:58:46.129Z,11.18
2019-04-05T01:01:52.074Z,10.72
2019-04-05T01:04:57.834Z,11.57
2019-04-05T01:08:03.579Z,10.20
2019-04-05T01:11:09.239Z,11.90
2019-04-05T01:14:15.001Z,11.05
2019-04-05T01:17:25.069Z,12.73
2019-04-05T01:20:29.514Z,11.22
2019-04-05T01:23:36.294Z,12.30
2019-04-05T01:26:44.796Z,12.33
2019-04-05T01:29:50.453Z,14.65
2019-04-05T01:32:56.093Z,10.63
2019-04-05T01:36:01.958Z,11.08
2019-04-05T01:39:08.113Z,11.48
2019-04-05T01:42:14.177Z,11.50
2019-04-05T01:45:20.544Z,14.18
2019-04-05T01:48:26.201Z,12.37
2019-04-05T01:51:33.557Z,12.47
2019-04-05T01:54:39.252Z,14.35
2019-04-05T01:57:44.881Z,13.58
2019-04-05T02:00:50.602Z,12.70
2019-04-05T02:03:56.306Z,14.75
2019-04-05T02:07:02.061Z,14.40
2019-04-05T02:10:09.134Z,13.40
2019-04-05T02:13:14.782Z,12.85
2019-04-05T02:16:20.587Z,12.95
2019-04-05T02:19:26.302Z,13.35
2019-04-05T02:22:32.070Z,16.02
2019-04-05T02:25:37.759Z,13.45
2019-04-05T02:28:43.486Z,17.50
2019-04-05T02:31:49.138Z,15.85
2019-04-05T02:34:54.863Z,19.62
2019-04-05T02:38:00.539Z,14.35
2019-04-05T02:41:06.433Z,13.50
2019-04-05T02:44:14.252Z,14.73
2019-04-05T02:47:21.045Z,14.85
2019-04-05T02:50:29.843Z,13.08
2019-04-05T02:53:37.081Z,13.00
2019-04-05T02:56:43.939Z,15.45
2019-04-05T02:59:50.400Z,17.57
2019-04-05T03:02:56.268Z,13.18
2019-04-05T03:06:02.529Z,14.73
2019-04-05T03:09:08.284Z,15.23
2019-04-05T03:12:14.644Z,32.58
2019-04-05T03:15:20.297Z,14.80
2019-04-05T03:18:28.121Z,15.55
2019-04-05T03:21:35.893Z,14.83
2019-04-05T03:24:44.479Z,14.47
2019-04-05T03:27:50.420Z,14.60
2019-04-05T03:30:56.551Z,14.85
2019-04-05T03:34:02.425Z,14.38
2019-04-05T03:37:08.682Z,15.35
2019-04-05T03:40:14.410Z,15.43
2019-04-05T03:43:20.165Z,13.62
2019-04-05T03:46:26.029Z,13.62
2019-04-05T03:49:32.103Z,17.42
2019-04-05T03:52:38.113Z,16.42
2019-04-05T03:55:44.934Z,19.77
2019-04-05T03:58:51.267Z,15.55
2019-04-05T04:01:57.114Z,15.50
2019-04-05T04:05:02.827Z,14.23
2019-04-05T04:08:09.625Z,16.27
2019-04-05T04:11:15.368Z,17.42
2019-04-05T04:14:21.016Z,14.80
2019-04-05T04:17:26.998Z,16.35
2019-04-05T04:20:41.144Z,16.20
2019-04-05T04:23:46.915Z,16.48
2019-04-05T04:26:53.126Z,18.02
2019-04-05T04:30:00.494Z,17.20
2019-04-05T04:33:07.130Z,16.60
2019-04-05T04:36:13.312Z,16.12
2019-04-05T04:39:20.355Z,14.87
2019-04-05T04:42:26.666Z,14.50
2019-04-05T04:45:33.081Z,14.40
2019-04-05T04:48:39.784Z,13.10
2019-04-05T04:51:45.840Z,13.98
2019-04-05T04:54:51.607Z,13.72
2019-04-05T04:57:57.365Z,13.62
2019-04-05T05:01:02.990Z,13.65
2019-04-05T05:04:09.392Z,14.40
2019-04-05T05:07:15.425Z,15.08
2019-04-05T05:10:21.185Z,17.45
2019-04-05T05:13:27.193Z,16.02
2019-04-05T05:16:33.013Z,15.90
2019-04-05T05:19:39.081Z,12.55
2019-04-05T05:22:44.941Z,16.73
2019-04-05T05:25:51.373Z,14.20
2019-04-05T05:28:57.333Z,15.95
2019-04-05T05:32:03.214Z,15.85
2019-04-05T05:35:09.063Z,14.75
2019-04-05T05:38:14.814Z,16.07
2019-04-05T05:41:20.776Z,16.97
2019-04-05T05:44:26.553Z,16.85
2019-04-05T05:47:32.285Z,15.72
2019-04-05T05:50:39.206Z,13.58
2019-04-05T05:53:45.932Z,15.98
2019-04-05T05:56:53.377Z,15.30
2019-04-05T06:00:00.606Z,19.85
2019-04-05T06:03:06.522Z,16.12
2019-04-05T06:06:13.191Z,16.27
2019-04-05T06:09:18.842Z,19.40
2019-04-05T06:12:24.597Z,16.45
2019-04-05T06:15:30.241Z,15.13
2019-04-05T06:18:35.889Z,17.57
2019-04-05T06:21:41.729Z,19.30
2019-04-05T06:24:47.405Z,17.07
2019-04-05T06:27:53.508Z,18.77
2019-04-05T06:30:59.230Z,19.77
2019-04-05T06:34:04.877Z,19.80
2019-04-05T06:37:10.529Z,17.75
2019-04-05T06:40:16.369Z,19.52
2019-04-05T06:44:10.495Z,21.07
2019-04-05T06:47:16.242Z,17.62
2019-04-05T06:50:22.893Z,29.82
2019-04-05T06:53:28.805Z,28.92
2019-04-05T06:56:37.270Z,31.48
2019-04-05T06:59:43.106Z,28.25
2019-04-05T07:02:48.821Z,24.43
2019-04-05T07:05:54.565Z,30.25
2019-04-05T07:09:00.246Z,28.00
2019-04-05T07:12:06.148Z,26.73
2019-04-05T07:15:11.929Z,30.15
2019-04-05T07:18:17.618Z,25.60
2019-04-05T07:21:23.121Z,25.45
2019-04-05T07:24:28.813Z,23.62
2019-04-05T07:27:34.859Z,34.80
2019-04-05T07:30:40.518Z,37.85
2019-04-05T07:33:46.285Z,27.13
2019-04-05T07:36:51.977Z,26.20
2019-04-05T07:39:57.695Z,22.87
2019-04-05T07:43:05.149Z,21.25
2019-04-05T07:46:11.729Z,19.17
2019-04-05T07:49:17.601Z,21.05
2019-04-05T07:52:24.234Z,22.50
2019-04-05T07:55:29.950Z,21.77
2019-04-05T07:58:35.678Z,21.87
2019-04-05T08:01:41.301Z,17.25
2019-04-05T08:04:46.974Z,17.87
2019-04-05T08:07:53.446Z,15.28
2019-04-05T08:10:59.615Z,18.45
2019-04-05T08:14:05.990Z,25.25
2019-04-05T08:17:12.058Z,25.88
2019-04-05T08:20:17.784Z,20.95
2019-04-05T08:23:23.455Z,28.98
2019-04-05T08:26:30.010Z,21.70
2019-04-05T08:29:35.790Z,23.25
2019-04-05T08:32:41.541Z,20.50
2019-04-05T08:35:47.189Z,18.65
2019-04-05T08:38:52.873Z,18.55
2019-04-05T08:41:58.485Z,20.00
2019-04-05T08:45:04.262Z,19.80
2019-04-05T08:48:10.801Z,18.73
2019-04-05T08:51:16.468Z,16.15
2019-04-05T08:54:32.603Z,17.77
2019-04-05T08:57:29.907Z,14.28
2019-04-05T09:00:35.557Z,14.55
2019-04-05T09:03:41.318Z,19.55
2019-04-05T09:06:46.948Z,16.15
2019-04-05T09:09:52.670Z,15.72
2019-04-05T09:12:58.367Z,16.65
2019-04-05T09:16:04.143Z,16.52
2019-04-05T09:19:22.801Z,14.53
2019-04-05T09:22:17.156Z,12.88
2019-04-05T09:25:22.807Z,14.23
2019-04-05T09:28:28.479Z,12.53
2019-04-05T09:31:34.262Z,16.77
2019-04-05T09:34:40.015Z,14.70
2019-04-05T09:37:45.627Z,13.93
2019-04-05T09:40:51.326Z,15.55
2019-04-05T09:43:57.205Z,13.32
2019-04-05T09:47:04.488Z,12.90
2019-04-05T09:50:10.723Z,12.60
2019-04-05T09:53:16.552Z,12.43
2019-04-05T09:56:22.224Z,14.53
2019-04-05T09:59:27.974Z,13.28
2019-04-05T10:02:33.708Z,12.45
2019-04-05T10:05:39.538Z,11.95
2019-04-05T10:08:46.446Z,11.48
2019-04-05T10:11:52.226Z,13.78
2019-04-05T10:14:59.715Z,15.88
2019-04-05T10:18:07.281Z,13.20
2019-04-05T10:21:12.984Z,11.65
2019-04-05T10:24:18.826Z,14.03
2019-04-05T10:27:25.595Z,13.00
2019-04-05T10:30:31.398Z,11.50
2019-04-05T10:33:37.123Z,11.65
2019-04-05T10:36:42.916Z,12.35
2019-04-05T10:39:48.726Z,13.00
2019-04-05T10:42:55.697Z,10.93
2019-04-05T10:46:01.594Z,11.57
2019-04-05T10:49:07.322Z,10.82
2019-04-05T10:52:13.115Z,9.75
2019-04-05T10:55:18.863Z,11.88
2019-04-05T10:58:25.500Z,11.55
2019-04-05T11:01:31.202Z,11.60
2019-04-05T11:04:38.145Z,12.18
2019-04-05T11:07:45.641Z,11.05
2019-04-05T11:10:51.327Z,11.08
2019-04-05T11:13:57.868Z,12.00
2019-04-05T11:17:05.039Z,11.35
2019-04-05T11:20:21.139Z,11.38
2019-04-05T11:23:21.423Z,11.38
2019-04-05T11:26:26.878Z,13.03
2019-04-05T11:29:32.684Z,12.18
2019-04-05T11:32:38.814Z,12.28
2019-04-05T11:35:44.898Z,12.60
2019-04-05T11:38:51.054Z,10.63
2019-04-05T11:41:58.849Z,10.53
2019-04-05T11:45:04.714Z,10.60
2019-04-05T11:48:10.389Z,10.53
2019-04-05T11:51:17.749Z,10.38
2019-04-05T11:54:23.438Z,10.05
2019-04-05T11:57:29.094Z,9.73
2019-04-05T12:00:52.999Z,9.58
2019-04-05T12:03:58.606Z,9.65
2019-04-05T12:07:04.284Z,11.12
2019-04-05T12:10:10.227Z,10.32
2019-04-05T12:13:15.994Z,12.58
2019-04-05T12:16:21.676Z,10.23
2019-04-05T12:19:27.381Z,9.10
2019-04-05T12:22:34.960Z,8.53
2019-04-05T12:25:40.335Z,9.30
2019-04-05T12:28:46.105Z,9.53
2019-04-05T12:31:53.401Z,10.20
2019-04-05T12:35:00.286Z,9.40
2019-04-05T12:38:07.101Z,8.85
2019-04-05T12:41:12.893Z,9.90
2019-04-05T12:44:18.674Z,9.00
2019-04-05T12:47:24.366Z,9.03
2019-04-05T12:50:30.070Z,9.15
2019-04-05T12:53:35.763Z,8.73
2019-04-05T12:56:42.513Z,10.65
2019-04-05T12:59:49.906Z,9.33
2019-04-05T13:02:57.087Z,9.48
2019-04-05T13:06:03.057Z,8.93
2019-04-05T13:09:11.373Z,9.23
2019-04-05T13:12:16.990Z,10.35
2019-04-05T13:15:22.801Z,8.38
2019-04-05T13:18:30.920Z,9.63
2019-04-05T13:21:36.429Z,9.20
2019-04-05T13:24:42.070Z,9.50
2019-04-05T13:27:47.767Z,8.60
2019-04-05T13:30:55.425Z,9.73
2019-04-05T13:34:00.825Z,10.03
2019-04-05T13:37:19.655Z,10.85
2019-04-05T13:40:15.849Z,10.80
2019-04-05T13:43:22.588Z,8.88
2019-04-05T13:46:28.194Z,8.65
2019-04-05T13:49:33.898Z,14.05
2019-04-05T13:52:42.152Z,9.38
2019-04-05T13:55:47.534Z,9.48
2019-04-05T13:58:53.410Z,8.78
2019-04-05T14:02:05.975Z,11.55
2019-04-05T14:05:07.055Z,7.67
2019-04-05T14:08:12.774Z,8.95
2019-04-05T14:11:18.809Z,9.68
2019-04-05T14:14:28.296Z,8.65
2019-04-05T14:17:32.919Z,9.73
2019-04-05T14:20:40.383Z,9.00
2019-04-05T14:23:46.109Z,8.18
2019-04-05T14:26:51.811Z,8.70
2019-04-05T14:29:57.498Z,8.75
2019-04-05T14:33:03.356Z,9.48
2019-04-05T14:36:09.144Z,9.05
2019-04-05T14:39:16.896Z,9.45
2019-04-05T14:42:22.690Z,8.33
2019-04-05T14:45:28.440Z,7.95
2019-04-05T14:48:34.360Z,7.97
2019-04-05T14:51:52.533Z,7.80
2019-04-05T14:54:50.148Z,9.28
2019-04-05T14:57:57.554Z,9.08
2019-04-05T15:01:03.680Z,9.35
2019-04-05T15:04:11.889Z,7.90
2019-04-05T15:07:20.640Z,8.65
2019-04-05T15:10:25.961Z,8.55
2019-04-05T15:13:33.505Z,35.88
2019-04-05T15:16:39.304Z,43.95
2019-04-05T15:19:44.941Z,48.23
2019-04-05T15:22:50.814Z,53.60
2019-04-05T15:25:56.570Z,51.37
2019-04-05T15:29:02.395Z,48.13
2019-04-05T15:32:09.652Z,48.13
2019-04-05T15:35:15.354Z,42.58
2019-04-05T15:38:21.124Z,41.28
2019-04-05T15:41:26.882Z,33.53
2019-04-05T15:44:32.865Z,29.18
2019-04-05T15:47:39.506Z,31.62
2019-04-05T15:50:45.179Z,44.55
2019-04-05T15:53:50.800Z,32.40
2019-04-05T15:56:56.469Z,36.35
2019-04-05T16:00:04.763Z,33.33
2019-04-05T16:03:11.434Z,29.45
2019-04-05T16:06:17.249Z,24.75
2019-04-05T16:09:23.802Z,23.57
2019-04-05T16:12:29.481Z,24.15
2019-04-05T16:15:36.376Z,21.90
2019-04-05T16:18:42.092Z,21.00
2019-04-05T16:21:47.841Z,24.15
2019-04-05T16:24:53.721Z,18.75
2019-04-05T16:27:59.455Z,19.60
2019-04-05T16:31:06.960Z,22.22
2019-04-05T16:34:12.617Z,18.92
2019-04-05T16:37:19.364Z,21.73
2019-04-05T16:40:25.483Z,16.85
2019-04-05T16:43:31.299Z,19.40
2019-04-05T16:46:36.962Z,17.98
2019-04-05T16:49:42.705Z,19.05
2019-04-05T16:52:48.453Z,18.00
2019-04-05T16:55:54.125Z,17.42
2019-04-05T16:58:59.866Z,16.35
2019-04-05T17:02:05.866Z,16.17
2019-04-05T17:05:11.970Z,15.43
2019-04-05T17:08:17.749Z,15.25
2019-04-05T17:11:23.542Z,15.13
2019-04-05T17:14:29.261Z,16.40
2019-04-05T17:17:35.922Z,16.57
2019-04-05T17:20:41.726Z,16.67
2019-04-05T17:23:47.328Z,18.17
2019-04-05T17:26:53.118Z,15.80
2019-04-05T17:29:58.953Z,18.75
2019-04-05T17:33:04.833Z,14.40
2019-04-05T17:36:10.597Z,13.78
2019-04-05T17:39:16.326Z,14.35
2019-04-05T17:42:22.214Z,14.83
2019-04-05T17:45:27.817Z,13.95
2019-04-05T17:48:33.482Z,14.75
2019-04-05T17:51:39.349Z,12.15
2019-04-05T17:54:44.993Z,12.45
2019-04-05T17:57:50.786Z,13.70
2019-04-05T18:00:56.527Z,16.02
2019-04-05T18:04:02.238Z,18.75
2019-04-05T18:07:07.958Z,13.38
2019-04-05T18:10:13.770Z,13.00
2019-04-05T18:13:19.566Z,12.78
2019-04-05T18:17:20.505Z,15.78
2019-04-05T18:20:26.235Z,13.62
2019-04-05T18:23:31.981Z,14.13
2019-04-05T18:26:37.646Z,14.85
2019-04-05T18:29:43.293Z,11.25
2019-04-05T18:32:50.033Z,13.78
2019-04-05T18:35:57.254Z,15.70
2019-04-05T18:39:04.314Z,17.25
2019-04-05T18:42:11.407Z,13.25
2019-04-05T18:45:17.158Z,12.28
2019-04-05T18:48:22.950Z,13.70
2019-04-05T18:51:28.639Z,15.15
2019-04-05T18:54:34.231Z,12.50
2019-04-05T18:57:40.006Z,12.70
2019-04-05T19:00:45.861Z,14.95
2019-04-05T19:03:51.617Z,12.47
2019-04-05T19:06:57.274Z,14.28
2019-04-05T19:10:02.901Z,10.82
2019-04-05T19:13:09.914Z,11.43
2019-04-05T19:16:16.577Z,11.12
2019-04-05T19:19:22.283Z,13.35
2019-04-05T19:22:28.042Z,14.95
2019-04-05T19:25:38.337Z,11.97
2019-04-05T19:28:44.209Z,12.35
2019-04-05T19:50:35.132Z,15.35
2019-04-05T19:53:40.801Z,15.83
2019-04-05T19:56:48.131Z,14.07
2019-04-05T19:59:53.746Z,16.52
2019-04-05T20:03:00.477Z,20.57
2019-04-05T20:06:07.886Z,21.37
2019-04-05T20:09:13.670Z,32.98
2019-04-05T20:12:19.450Z,19.20
2019-04-05T20:15:25.175Z,20.32
2019-04-05T20:18:36.308Z,16.17
2019-04-05T20:22:09.109Z,20.57
2019-04-05T20:25:15.713Z,22.85
2019-04-05T20:28:21.501Z,18.62
2019-04-05T20:31:27.142Z,19.87
2019-04-05T20:34:32.830Z,16.25
2019-04-05T20:37:40.194Z,19.27
2019-04-05T20:40:46.258Z,16.75
2019-04-05T20:43:52.958Z,14.95
2019-04-05T20:46:59.678Z,17.50
2019-04-05T20:50:06.099Z,18.32
2019-04-05T20:53:15.591Z,15.88
2019-04-05T20:56:21.350Z,17.80
2019-04-05T20:59:28.049Z,20.85
2019-04-05T21:02:33.704Z,21.95
2019-04-05T21:05:39.362Z,18.90
2019-04-05T21:08:45.403Z,18.17
2019-04-05T21:11:51.864Z,17.00
2019-04-05T21:14:58.072Z,20.10
2019-04-05T21:18:03.802Z,17.20
2019-04-05T21:21:09.446Z,17.32
2019-04-05T21:24:15.225Z,18.98
2019-04-05T21:27:22.274Z,19.25
2019-04-05T21:30:27.940Z,16.93
2019-04-05T21:33:33.585Z,16.87
2019-04-05T21:36:40.341Z,15.58
2019-04-05T21:39:46.051Z,18.73
2019-04-05T21:42:51.764Z,19.12
2019-04-05T21:45:57.413Z,18.35
2019-04-05T21:49:04.816Z,18.52
2019-04-05T21:52:10.570Z,31.57
2019-04-05T22:01:25.336Z,18.32
2019-04-05T22:10:05.991Z,18.25
2019-04-05T22:13:11.640Z,14.70
2019-04-05T22:16:17.402Z,17.32
2019-04-05T22:19:23.130Z,16.75
2019-04-05T22:22:28.829Z,19.07
2019-04-05T22:25:36.885Z,14.73
2019-04-05T22:28:42.557Z,14.83
2019-04-05T22:31:48.237Z,17.95
2019-04-05T22:34:53.853Z,15.85
2019-04-05T22:37:59.496Z,19.77
2019-04-05T22:41:05.378Z,18.50
2019-04-05T22:44:11.137Z,19.12
2019-04-05T22:47:16.866Z,18.85
2019-04-05T22:50:22.512Z,17.15
2019-04-05T22:53:28.185Z,15.32
2019-04-05T22:56:34.155Z,16.32
2019-04-05T22:59:39.973Z,17.85
2019-04-05T23:02:45.773Z,18.82
2019-04-05T23:05:51.493Z,15.90
2019-04-05T23:08:57.339Z,17.15
2019-04-05T23:12:03.042Z,18.90
2019-04-05T23:15:09.511Z,15.15
2019-04-05T23:18:15.154Z,14.98
2019-04-05T23:21:20.787Z,15.58
2019-04-05T23:24:26.436Z,15.78
2019-04-05T23:27:32.114Z,15.05
2019-04-05T23:30:37.882Z,15.10
2019-04-05T23:33:44.558Z,18.17
2019-04-05T23:36:51.304Z,17.05
2019-04-05T23:39:56.979Z,18.02
2019-04-05T23:43:02.634Z,17.15
2019-04-05T23:46:10.088Z,15.13
2019-04-05T23:49:17.183Z,16.75
2019-04-05T23:52:22.877Z,17.60
2019-04-05T23:55:33.671Z,17.32
2019-04-05T23:58:35.802Z,16.90
